KPVW/PVW METAR and TAF weather

Enter ICAO airport designator
Station Type Date Time Source
KPVW METAR 2022/06/28 15:55 UTC NOAA

KPVW 281555Z AUTO 11007KT 10SM SCT075 22/15 A3032 RMK AO2 T02170149 TSNO


Station Type Date Time Source
KPVW Decoded METAR 2022/06/28 15:55 UTC NOAA

Plainview, Hale County Airport, TX, United States (KPVW) 34-10-05N 101-43-02W
Jun 28, 2022 - 11:55 AM EDT / 2022.06.28 1555 UTC
Wind: from the ESE (110 degrees) at 8 MPH (7 KT):0
Visibility: 10 mile(s):0
Sky conditions: partly cloudy
Temperature: 71.1 F (21.7 C)
Dew Point: 58.8 F (14.9 C)
Relative Humidity: 65%
Pressure (altimeter): 30.32 in. Hg (1026 hPa)
ob: KPVW 281555Z AUTO 11007KT 10SM SCT075 22/15 A3032 RMK AO2 T02170149 TSNO
cycle: 16

Station Type Date Time Source
KPVW TAF 2022/06/28 12:30 UTC NOAA

TAF KPVW 281128Z 2812/2912 07006KT P6SM FEW010 SCT035 OVC090
FM282100 11009KT 6SM -SHRA SCT030 OVC090
FM290000 14008KT P6SM BKN150

Example: see airport list